createdAt,value
2023-01-26T00:00:47.948Z,29.13
2023-01-26T00:05:41.846Z,31.10
2023-01-26T00:10:37.780Z,35.07
2023-01-26T00:15:31.030Z,32.20
2023-01-26T00:20:25.578Z,32.43
2023-01-26T00:25:18.909Z,33.70
2023-01-26T00:30:13.772Z,36.83
2023-01-26T00:35:07.766Z,35.03
2023-01-26T00:40:04.227Z,36.87
2023-01-26T00:44:57.517Z,28.77
2023-01-26T00:49:50.730Z,34.70
2023-01-26T00:54:45.846Z,31.83
2023-01-26T00:59:42.509Z,32.30
2023-01-26T01:04:35.705Z,32.47
2023-01-26T01:09:29.113Z,31.83
2023-01-26T01:14:22.467Z,30.90
2023-01-26T01:19:18.502Z,32.60
2023-01-26T01:24:12.381Z,31.53
2023-01-26T01:29:05.744Z,32.03
2023-01-26T01:33:59.189Z,32.50
2023-01-26T01:38:54.102Z,32.93
2023-01-26T01:43:47.441Z,34.23
2023-01-26T01:48:49.093Z,33.70
2023-01-26T01:53:47.471Z,29.80
2023-01-26T01:58:44.578Z,33.90
2023-01-26T02:03:39.217Z,34.20
2023-01-26T02:08:38.240Z,29.60
2023-01-26T02:13:34.777Z,36.90
2023-01-26T02:18:31.543Z,37.00
2023-01-26T02:23:37.519Z,35.07
2023-01-26T02:28:33.012Z,34.13
2023-01-26T02:33:28.462Z,35.83
2023-01-26T02:38:31.218Z,34.88
2023-01-26T02:43:26.948Z,34.50
2023-01-26T02:48:36.062Z,39.03
2023-01-26T02:53:30.440Z,33.47
2023-01-26T02:58:23.825Z,31.43
2023-01-26T03:03:20.126Z,31.40
2023-01-26T03:08:14.832Z,34.03
2023-01-26T03:13:10.814Z,33.10
2023-01-26T03:18:23.190Z,35.17
2023-01-26T03:23:35.547Z,39.10
2023-01-26T03:28:29.101Z,39.77
2023-01-26T03:33:22.714Z,37.20
2023-01-26T03:38:17.642Z,35.90
2023-01-26T03:43:32.812Z,35.10
2023-01-26T03:48:43.847Z,36.10
2023-01-26T03:53:55.975Z,34.30
2023-01-26T03:58:51.773Z,38.73
2023-01-26T04:04:03.392Z,36.60
2023-01-26T04:08:58.122Z,37.00
2023-01-26T04:14:08.779Z,37.20
2023-01-26T04:19:19.976Z,38.58
2023-01-26T04:24:18.030Z,35.87
2023-01-26T04:29:14.192Z,41.00
2023-01-26T04:34:12.990Z,35.27
2023-01-26T04:39:09.605Z,37.77
2023-01-26T04:44:06.958Z,37.73
2023-01-26T04:49:00.320Z,40.57
2023-01-26T04:53:54.383Z,43.07
2023-01-26T04:58:49.044Z,36.73
2023-01-26T05:03:44.381Z,36.37
2023-01-26T05:08:40.450Z,38.13
2023-01-26T05:13:36.171Z,39.27
2023-01-26T05:18:57.229Z,37.37
2023-01-26T05:24:09.753Z,38.77
2023-01-26T05:29:23.313Z,41.77
2023-01-26T05:34:18.642Z,39.47
2023-01-26T05:39:12.465Z,37.90
2023-01-26T05:44:08.164Z,40.37
2023-01-26T05:49:19.969Z,37.97
2023-01-26T05:54:13.826Z,38.47
2023-01-26T05:59:07.344Z,35.93
2023-01-26T06:04:00.928Z,39.57
2023-01-26T06:13:58.708Z,40.03
2023-01-26T06:18:53.677Z,42.23
2023-01-26T06:23:47.498Z,40.83
2023-01-26T06:28:42.923Z,39.90
2023-01-26T06:33:37.817Z,43.57
2023-01-26T06:38:32.901Z,43.90
2023-01-26T06:43:26.263Z,43.07
2023-01-26T06:48:20.796Z,44.70
2023-01-26T06:53:30.561Z,40.10
2023-01-26T06:58:42.207Z,47.07
2023-01-26T07:03:56.406Z,45.33
2023-01-26T07:08:50.881Z,50.60
2023-01-26T07:13:44.296Z,45.10
2023-01-26T07:18:38.019Z,46.70
2023-01-26T07:23:34.842Z,44.17
2023-01-26T07:28:30.706Z,45.50
2023-01-26T07:33:23.952Z,47.33
2023-01-26T07:38:17.046Z,46.83
2023-01-26T07:43:15.076Z,42.13
2023-01-26T07:48:15.878Z,40.40
2023-01-26T07:53:09.718Z,44.80
2023-01-26T07:58:02.949Z,51.27
2023-01-26T08:02:57.679Z,41.50
2023-01-26T08:07:50.890Z,37.97
2023-01-26T08:12:44.110Z,40.73
2023-01-26T08:17:38.624Z,42.20
2023-01-26T08:22:33.173Z,35.30
2023-01-26T08:27:26.240Z,33.47
2023-01-26T08:32:19.318Z,33.77
2023-01-26T08:37:12.594Z,35.57
2023-01-26T08:42:07.486Z,36.10
2023-01-26T08:47:00.697Z,33.20
2023-01-26T08:51:56.304Z,36.27
2023-01-26T08:56:49.579Z,34.67
2023-01-26T09:01:44.156Z,37.20
2023-01-26T09:06:37.363Z,36.53
2023-01-26T09:11:30.617Z,35.23
2023-01-26T09:16:25.223Z,40.30
2023-01-26T09:21:20.635Z,51.83
2023-01-26T09:26:13.886Z,43.37
2023-01-26T09:31:08.536Z,46.77
2023-01-26T09:36:05.455Z,40.77
2023-01-26T09:41:06.745Z,39.73
2023-01-26T09:46:07.731Z,45.70
2023-01-26T09:51:06.099Z,42.40
2023-01-26T09:56:01.421Z,48.63
2023-01-26T10:01:01.450Z,40.93
2023-01-26T10:06:02.572Z,41.22
2023-01-26T10:11:20.841Z,60.13
2023-01-26T10:16:16.433Z,52.70
2023-01-26T10:21:12.114Z,46.57
2023-01-26T10:26:14.811Z,42.73
2023-01-26T10:31:15.447Z,48.93
2023-01-26T10:36:13.631Z,48.87
2023-01-26T10:41:11.382Z,42.70
2023-01-26T10:46:05.684Z,44.23
2023-01-26T10:51:17.484Z,47.73
2023-01-26T10:56:16.338Z,51.03
2023-01-26T11:01:12.621Z,48.33
2023-01-26T11:06:14.653Z,49.40
2023-01-26T11:11:10.563Z,51.07
2023-01-26T11:16:11.649Z,47.70
2023-01-26T11:21:12.941Z,44.43
2023-01-26T11:26:41.192Z,41.50
2023-01-26T11:31:45.157Z,48.07
2023-01-26T11:36:50.851Z,41.47
2023-01-26T11:41:57.414Z,47.10
2023-01-26T11:47:02.900Z,46.57
2023-01-26T11:52:11.042Z,45.23
2023-01-26T11:57:16.430Z,42.30
2023-01-26T12:02:28.869Z,49.10
2023-01-26T12:07:28.425Z,44.20
2023-01-26T12:12:28.320Z,55.80
2023-01-26T12:17:37.833Z,52.17
2023-01-26T12:22:36.064Z,53.10
2023-01-26T12:27:36.317Z,56.77
2023-01-26T12:32:32.513Z,54.38
2023-01-26T12:37:48.459Z,48.93
2023-01-26T12:42:50.865Z,51.40
2023-01-26T12:47:49.755Z,55.83
2023-01-26T12:52:49.289Z,48.63
2023-01-26T12:57:49.234Z,55.50
2023-01-26T13:02:53.522Z,53.03
2023-01-26T13:08:01.629Z,47.50
2023-01-26T13:18:54.762Z,46.03
2023-01-26T13:23:58.208Z,48.53
2023-01-26T13:29:36.429Z,48.10
2023-01-26T13:35:03.996Z,39.30
2023-01-26T13:40:59.333Z,43.60
2023-01-26T13:46:35.100Z,43.43
2023-01-26T13:58:00.422Z,52.90
2023-01-26T14:03:05.587Z,49.30
2023-01-26T14:08:16.378Z,37.57
2023-01-26T14:13:37.447Z,42.40
2023-01-26T14:18:54.940Z,47.88
2023-01-26T14:30:15.710Z,53.57
2023-01-26T14:35:28.987Z,79.83
2023-01-26T14:53:44.051Z,50.37
2023-01-26T14:59:21.491Z,37.97
2023-01-26T15:05:12.704Z,38.50
2023-01-26T15:11:39.777Z,41.83
2023-01-26T15:17:02.267Z,40.90
2023-01-26T15:22:58.751Z,38.27
2023-01-26T15:28:50.579Z,35.57
2023-01-26T15:34:53.074Z,35.23
2023-01-26T15:40:49.863Z,31.40
2023-01-26T15:52:35.682Z,30.77
2023-01-26T16:04:04.054Z,34.87
2023-01-26T16:09:42.154Z,33.97
2023-01-26T16:21:58.209Z,40.17
2023-01-26T16:28:53.399Z,42.03
2023-01-26T16:33:38.566Z,49.63
2023-01-26T16:39:57.567Z,56.70
2023-01-26T16:50:55.480Z,45.70
2023-01-26T16:56:34.373Z,42.28
2023-01-26T17:08:15.266Z,47.90
2023-01-26T17:13:54.817Z,48.58
2023-01-26T17:32:20.204Z,53.30
2023-01-26T17:37:55.876Z,56.37
2023-01-26T17:43:47.763Z,50.20
2023-01-26T17:49:15.673Z,46.47
2023-01-26T17:55:10.901Z,46.57
2023-01-26T18:07:20.290Z,34.57
2023-01-26T18:19:54.301Z,29.40
2023-01-26T18:44:29.608Z,23.95
2023-01-26T18:50:07.568Z,26.17
2023-01-26T18:55:35.973Z,22.57
2023-01-26T19:07:20.262Z,25.93
2023-01-26T19:24:51.723Z,33.47
2023-01-26T19:30:34.457Z,25.07
2023-01-26T19:36:32.315Z,29.03
2023-01-26T19:42:21.723Z,30.80
2023-01-26T19:47:58.727Z,25.83
2023-01-26T19:53:32.199Z,31.33
2023-01-26T19:59:03.982Z,24.97
2023-01-26T20:04:14.854Z,27.60
2023-01-26T20:10:22.142Z,28.33
2023-01-26T20:29:02.666Z,20.97
2023-01-26T20:34:45.911Z,23.63
2023-01-26T20:41:06.771Z,21.33
2023-01-26T21:05:15.514Z,26.60
2023-01-26T21:11:07.328Z,28.43
2023-01-26T21:33:58.675Z,29.83
2023-01-26T21:51:02.422Z,31.67
2023-01-26T21:56:43.215Z,32.90
2023-01-26T22:07:39.157Z,31.27
2023-01-26T22:12:51.766Z,29.50
2023-01-26T22:18:14.441Z,31.10
2023-01-26T22:29:53.486Z,33.57
2023-01-26T22:35:54.464Z,34.10
2023-01-26T22:41:23.001Z,30.30
2023-01-26T22:46:42.592Z,33.57
2023-01-26T22:51:54.395Z,31.23
2023-01-26T22:57:06.107Z,45.87
2023-01-26T23:08:51.901Z,30.03
2023-01-26T23:14:15.260Z,35.77
2023-01-26T23:19:33.868Z,32.17
2023-01-26T23:24:35.767Z,30.57
2023-01-26T23:30:41.580Z,34.10
2023-01-26T23:35:48.315Z,33.90
2023-01-26T23:41:06.373Z,27.47
2023-01-26T23:46:26.623Z,28.83
2023-01-26T23:51:41.120Z,25.37
2023-01-26T23:57:10.855Z,29.13
